createdAt,value
2016-12-16T00:00:44.318Z,-86
2016-12-16T00:01:44.211Z,-86
2016-12-16T00:02:44.235Z,-86
2016-12-16T00:03:44.397Z,-86
2016-12-16T00:04:44.275Z,-86
2016-12-16T00:05:44.408Z,-87
2016-12-16T00:06:44.439Z,-86
2016-12-16T00:07:44.301Z,-87
2016-12-16T00:08:44.300Z,-86
2016-12-16T00:09:44.376Z,-86
2016-12-16T00:10:44.427Z,-86
2016-12-16T00:11:44.519Z,-86
2016-12-16T00:12:44.392Z,-86
2016-12-16T00:13:44.431Z,-86
2016-12-16T00:14:44.373Z,-86
2016-12-16T00:15:44.489Z,-86
2016-12-16T00:16:44.384Z,-86
2016-12-16T00:17:44.334Z,-86
2016-12-16T00:18:44.387Z,-87
2016-12-16T00:19:44.451Z,-86
2016-12-16T00:20:44.253Z,-86
2016-12-16T00:21:44.437Z,-86
2016-12-16T00:22:44.514Z,-86
2016-12-16T00:23:44.334Z,-86
2016-12-16T00:24:44.357Z,-86
2016-12-16T00:25:44.513Z,-86
2016-12-16T00:26:44.551Z,-86
2016-12-16T00:27:44.679Z,-86
2016-12-16T00:28:44.436Z,-86
2016-12-16T00:29:44.427Z,-86
2016-12-16T00:30:44.428Z,-86
2016-12-16T00:31:44.375Z,-86
2016-12-16T00:32:44.404Z,-86
2016-12-16T00:33:44.486Z,-86
2016-12-16T00:34:44.290Z,-86
2016-12-16T00:35:44.372Z,-86
2016-12-16T00:36:44.509Z,-86
2016-12-16T00:37:44.378Z,-86
2016-12-16T00:38:44.476Z,-86
2016-12-16T00:39:44.479Z,-86
2016-12-16T00:40:44.423Z,-86
2016-12-16T00:41:44.344Z,-86
2016-12-16T00:42:44.509Z,-86
2016-12-16T00:43:45.387Z,-86
2016-12-16T00:44:44.505Z,-86
2016-12-16T00:45:44.410Z,-86
2016-12-16T00:46:44.487Z,-86
2016-12-16T00:47:44.535Z,-86
2016-12-16T00:48:44.560Z,-86
2016-12-16T00:49:44.425Z,-86
2016-12-16T00:50:44.449Z,-85
2016-12-16T00:51:44.550Z,-86
2016-12-16T00:52:44.626Z,-86
2016-12-16T00:53:44.414Z,-86
2016-12-16T00:54:44.674Z,-86
2016-12-16T00:55:44.390Z,-86
2016-12-16T00:56:44.479Z,-86
2016-12-16T00:57:44.930Z,-86
2016-12-16T00:58:44.433Z,-86
2016-12-16T00:59:44.553Z,-86
2016-12-16T01:00:44.423Z,-86
2016-12-16T01:01:44.441Z,-86
2016-12-16T01:02:44.516Z,-86
2016-12-16T01:03:44.490Z,-86
2016-12-16T01:04:44.833Z,-86
2016-12-16T01:05:44.453Z,-86
2016-12-16T01:06:44.546Z,-86
2016-12-16T01:07:44.577Z,-86
2016-12-16T01:08:44.480Z,-86
2016-12-16T01:09:44.509Z,-86
2016-12-16T01:10:44.604Z,-86
2016-12-16T01:11:44.531Z,-86
2016-12-16T01:12:44.478Z,-86
2016-12-16T01:13:52.418Z,-87
2016-12-16T01:14:44.696Z,-86
2016-12-16T01:15:44.637Z,-86
2016-12-16T01:16:44.605Z,-86
2016-12-16T01:17:44.536Z,-86
2016-12-16T01:18:44.597Z,-86
2016-12-16T01:19:44.481Z,-86
2016-12-16T01:20:44.525Z,-86
2016-12-16T01:21:44.550Z,-86
2016-12-16T01:22:44.497Z,-86
2016-12-16T01:23:44.536Z,-85
2016-12-16T01:24:44.560Z,-86
2016-12-16T01:25:44.595Z,-86
2016-12-16T01:26:44.620Z,-86
2016-12-16T01:27:44.522Z,-86
2016-12-16T01:28:45.202Z,-85
2016-12-16T01:29:44.520Z,-85
2016-12-16T01:30:44.660Z,-85
2016-12-16T01:31:44.501Z,-85
2016-12-16T01:32:44.570Z,-85
2016-12-16T01:33:44.579Z,-85
2016-12-16T01:34:44.616Z,-85
2016-12-16T01:35:44.667Z,-86
2016-12-16T01:36:44.566Z,-86
2016-12-16T01:37:44.583Z,-86
2016-12-16T01:38:44.576Z,-85
2016-12-16T01:39:44.659Z,-86
2016-12-16T01:40:44.716Z,-85
2016-12-16T01:41:44.656Z,-85
2016-12-16T01:42:44.712Z,-85
2016-12-16T01:43:44.618Z,-85
2016-12-16T01:44:44.652Z,-86
2016-12-16T01:45:44.521Z,-86
2016-12-16T01:46:44.630Z,-86
2016-12-16T01:47:44.740Z,-85
2016-12-16T01:48:44.507Z,-86
2016-12-16T01:49:44.591Z,-86
2016-12-16T01:50:44.504Z,-85
2016-12-16T01:51:44.554Z,-86
2016-12-16T01:52:44.652Z,-86
2016-12-16T01:53:44.597Z,-86
2016-12-16T01:54:44.612Z,-85
2016-12-16T01:55:44.579Z,-85
2016-12-16T01:56:44.655Z,-85
2016-12-16T01:57:44.515Z,-85
2016-12-16T01:58:44.716Z,-86
2016-12-16T01:59:44.724Z,-85
2016-12-16T02:00:44.666Z,-86
2016-12-16T02:01:44.816Z,-85
2016-12-16T02:02:44.746Z,-85
2016-12-16T02:03:44.654Z,-85
2016-12-16T02:04:44.635Z,-85
2016-12-16T02:05:44.721Z,-85
2016-12-16T02:06:44.684Z,-85
2016-12-16T02:07:44.584Z,-86
2016-12-16T02:08:44.769Z,-86
2016-12-16T02:09:44.792Z,-85
2016-12-16T02:10:44.728Z,-86
2016-12-16T02:11:44.666Z,-86
2016-12-16T02:12:44.721Z,-85
2016-12-16T02:13:44.699Z,-86
2016-12-16T02:14:44.658Z,-86
2016-12-16T02:15:44.778Z,-85
2016-12-16T02:16:44.644Z,-85
2016-12-16T02:17:44.764Z,-86
2016-12-16T02:18:44.776Z,-86
2016-12-16T02:19:44.777Z,-85
2016-12-16T02:20:44.586Z,-86
2016-12-16T02:21:44.715Z,-85
2016-12-16T02:22:44.719Z,-85
2016-12-16T02:23:44.769Z,-86
2016-12-16T02:24:44.764Z,-85
2016-12-16T02:25:44.709Z,-85
2016-12-16T02:26:44.601Z,-85
2016-12-16T02:27:44.671Z,-85
2016-12-16T02:28:44.670Z,-85
2016-12-16T02:29:44.745Z,-85
2016-12-16T02:30:44.852Z,-85
2016-12-16T02:31:44.740Z,-85
2016-12-16T02:32:44.753Z,-85
2016-12-16T02:33:44.759Z,-85
2016-12-16T02:34:44.922Z,-85
2016-12-16T02:35:44.801Z,-86
2016-12-16T02:36:44.699Z,-86
2016-12-16T02:37:44.789Z,-86
2016-12-16T02:38:44.694Z,-86
2016-12-16T02:39:44.771Z,-85
2016-12-16T02:40:44.845Z,-86
2016-12-16T02:41:44.832Z,-85
2016-12-16T02:42:44.809Z,-86
2016-12-16T02:43:44.791Z,-86
2016-12-16T02:44:44.734Z,-85
2016-12-16T02:45:44.726Z,-86
2016-12-16T02:46:44.745Z,-85
2016-12-16T02:47:44.736Z,-86
2016-12-16T02:48:44.764Z,-85
2016-12-16T02:49:44.678Z,-85
2016-12-16T02:50:44.738Z,-85
2016-12-16T02:51:44.774Z,-85
2016-12-16T02:52:44.739Z,-86
2016-12-16T02:53:44.799Z,-85
2016-12-16T02:54:44.848Z,-86
2016-12-16T02:55:44.814Z,-85
2016-12-16T02:56:44.896Z,-85
2016-12-16T02:57:44.809Z,-85
2016-12-16T02:58:44.708Z,-86
2016-12-16T02:59:44.822Z,-85
2016-12-16T03:00:44.760Z,-85
2016-12-16T03:01:44.814Z,-85
2016-12-16T03:02:44.885Z,-86
2016-12-16T03:03:45.293Z,-85
2016-12-16T03:04:44.879Z,-85
2016-12-16T03:05:44.767Z,-85
2016-12-16T03:06:44.725Z,-86
2016-12-16T03:07:44.818Z,-85
2016-12-16T03:08:44.907Z,-85
2016-12-16T03:09:44.842Z,-85
2016-12-16T03:10:44.815Z,-86
2016-12-16T03:11:44.923Z,-85
2016-12-16T03:12:44.932Z,-86
2016-12-16T03:13:44.885Z,-86
2016-12-16T03:14:44.845Z,-86
2016-12-16T03:15:44.809Z,-86
2016-12-16T03:16:44.822Z,-86
2016-12-16T03:17:44.878Z,-86
2016-12-16T03:18:45.276Z,-86
2016-12-16T03:19:44.778Z,-85
2016-12-16T03:20:44.887Z,-85
2016-12-16T03:21:44.890Z,-86
2016-12-16T03:22:44.888Z,-85
2016-12-16T03:23:44.902Z,-85
2016-12-16T03:24:44.865Z,-85
2016-12-16T03:25:44.874Z,-85
2016-12-16T03:26:44.883Z,-85
2016-12-16T03:27:44.825Z,-86
2016-12-16T03:28:44.965Z,-85
2016-12-16T03:29:44.900Z,-86
2016-12-16T03:30:44.846Z,-85
2016-12-16T03:31:44.885Z,-86
2016-12-16T03:32:44.850Z,-86
2016-12-16T03:33:44.885Z,-86
2016-12-16T03:34:44.817Z,-86
2016-12-16T03:35:44.924Z,-85
2016-12-16T03:36:44.963Z,-85
2016-12-16T03:37:44.820Z,-86
2016-12-16T03:38:44.894Z,-86
2016-12-16T03:39:44.929Z,-85
2016-12-16T03:40:44.992Z,-85
2016-12-16T03:41:44.958Z,-86
2016-12-16T03:42:44.878Z,-85
2016-12-16T03:43:44.997Z,-85
2016-12-16T03:44:44.982Z,-85
2016-12-16T03:45:44.984Z,-85
2016-12-16T03:46:44.889Z,-85
2016-12-16T03:47:45.064Z,-85
2016-12-16T03:48:44.922Z,-86
2016-12-16T03:49:45.266Z,-85
2016-12-16T03:50:44.927Z,-85
2016-12-16T03:51:44.922Z,-85
2016-12-16T03:52:45.069Z,-85
2016-12-16T03:53:44.972Z,-86
2016-12-16T03:54:44.906Z,-85
2016-12-16T03:55:45.021Z,-85
2016-12-16T03:56:44.932Z,-86
2016-12-16T03:57:44.985Z,-85
2016-12-16T03:58:45.119Z,-86
2016-12-16T03:59:44.989Z,-85
2016-12-16T04:00:44.931Z,-85
2016-12-16T04:01:44.938Z,-85
2016-12-16T04:02:44.946Z,-85
2016-12-16T04:03:44.856Z,-85
2016-12-16T04:04:44.952Z,-86
2016-12-16T04:05:44.999Z,-85
2016-12-16T04:06:44.973Z,-85
2016-12-16T04:07:44.995Z,-85
2016-12-16T04:08:45.145Z,-85
2016-12-16T04:09:45.060Z,-85
2016-12-16T04:10:45.030Z,-85
2016-12-16T04:11:45.030Z,-86
2016-12-16T04:12:45.400Z,-86
2016-12-16T04:13:45.033Z,-85
2016-12-16T04:14:45.277Z,-86
2016-12-16T04:15:44.932Z,-86
2016-12-16T04:16:45.047Z,-85
2016-12-16T04:17:45.016Z,-86
2016-12-16T04:18:45.028Z,-86
2016-12-16T04:19:45.043Z,-85
2016-12-16T04:20:44.912Z,-86
2016-12-16T04:21:45.055Z,-86
2016-12-16T04:22:45.288Z,-85
2016-12-16T04:23:45.053Z,-86
2016-12-16T04:24:44.994Z,-85
2016-12-16T04:25:45.013Z,-85
2016-12-16T04:26:44.931Z,-85
2016-12-16T04:27:45.116Z,-85
2016-12-16T04:28:45.053Z,-86
2016-12-16T04:29:45.010Z,-85
2016-12-16T04:30:45.138Z,-85
2016-12-16T04:31:44.975Z,-86
2016-12-16T04:32:45.093Z,-86
2016-12-16T04:33:45.062Z,-85
2016-12-16T04:34:45.090Z,-85
2016-12-16T04:35:45.027Z,-85
2016-12-16T04:36:45.048Z,-86
2016-12-16T04:37:45.081Z,-86
2016-12-16T04:38:45.380Z,-85
2016-12-16T04:39:45.079Z,-85
2016-12-16T04:40:45.055Z,-86
2016-12-16T04:41:45.164Z,-85
2016-12-16T04:42:45.057Z,-85
2016-12-16T04:43:45.084Z,-86
2016-12-16T04:44:45.061Z,-85
2016-12-16T04:45:45.052Z,-85
2016-12-16T04:46:45.058Z,-85
2016-12-16T04:47:45.077Z,-86
2016-12-16T04:48:45.397Z,-85
2016-12-16T04:49:45.179Z,-86
2016-12-16T04:50:45.106Z,-85
2016-12-16T04:51:45.032Z,-85
2016-12-16T04:52:45.231Z,-85
2016-12-16T04:53:45.194Z,-86
2016-12-16T04:54:45.164Z,-85
2016-12-16T04:55:45.239Z,-85
2016-12-16T04:56:45.009Z,-86
2016-12-16T04:57:45.075Z,-86
2016-12-16T04:58:45.237Z,-85
2016-12-16T04:59:45.114Z,-86
2016-12-16T05:00:45.135Z,-86
2016-12-16T05:01:45.148Z,-86
2016-12-16T05:02:45.206Z,-85
2016-12-16T05:03:45.129Z,-86
2016-12-16T05:04:45.116Z,-85
2016-12-16T05:05:45.098Z,-85
2016-12-16T05:06:45.208Z,-85
2016-12-16T05:07:45.142Z,-85
2016-12-16T05:08:45.160Z,-85
2016-12-16T05:09:45.106Z,-86
2016-12-16T05:10:45.249Z,-85
2016-12-16T05:11:45.248Z,-85
2016-12-16T05:12:45.283Z,-85
2016-12-16T05:13:45.183Z,-86
2016-12-16T05:14:45.114Z,-86
2016-12-16T05:15:45.231Z,-86
2016-12-16T05:16:45.185Z,-86
2016-12-16T05:17:45.274Z,-86
2016-12-16T05:18:45.236Z,-86
2016-12-16T05:19:45.084Z,-86
2016-12-16T05:20:45.246Z,-85
2016-12-16T05:21:45.384Z,-86
2016-12-16T05:22:45.157Z,-86
2016-12-16T05:23:45.240Z,-85
2016-12-16T05:24:45.142Z,-85
2016-12-16T05:25:45.165Z,-86
2016-12-16T05:26:45.272Z,-85
2016-12-16T05:27:45.221Z,-86
2016-12-16T05:28:45.251Z,-85
2016-12-16T05:29:45.560Z,-86
2016-12-16T05:30:45.234Z,-85
2016-12-16T05:31:45.220Z,-85
2016-12-16T05:32:45.193Z,-86
2016-12-16T05:33:45.223Z,-86
2016-12-16T05:34:45.135Z,-86
2016-12-16T05:35:45.198Z,-86
2016-12-16T05:36:45.284Z,-86
2016-12-16T05:37:45.264Z,-86
2016-12-16T05:38:45.192Z,-86
2016-12-16T05:39:45.657Z,-85
2016-12-16T05:40:45.329Z,-86
2016-12-16T05:41:45.339Z,-85
2016-12-16T05:42:45.266Z,-85
2016-12-16T05:43:45.272Z,-86
2016-12-16T05:44:45.153Z,-85
2016-12-16T05:45:45.298Z,-85
2016-12-16T05:46:45.293Z,-86
2016-12-16T05:47:45.317Z,-86
2016-12-16T05:48:45.420Z,-86
2016-12-16T05:49:45.340Z,-86
2016-12-16T05:50:45.220Z,-86
2016-12-16T05:51:45.221Z,-86
2016-12-16T05:52:45.223Z,-86
2016-12-16T05:53:45.478Z,-86
2016-12-16T05:54:45.685Z,-86
2016-12-16T05:55:45.271Z,-86
2016-12-16T05:56:45.817Z,-85
2016-12-16T05:57:45.426Z,-85
2016-12-16T05:58:45.337Z,-85
2016-12-16T05:59:45.337Z,-86
2016-12-16T06:00:45.249Z,-85
2016-12-16T06:01:45.265Z,-86
2016-12-16T06:02:45.362Z,-85
2016-12-16T06:03:45.359Z,-85
2016-12-16T06:04:45.204Z,-86
2016-12-16T06:05:45.289Z,-85
2016-12-16T06:06:45.347Z,-85
2016-12-16T06:07:45.292Z,-85
2016-12-16T06:08:45.355Z,-86
2016-12-16T06:09:45.354Z,-86
2016-12-16T06:10:45.334Z,-85
2016-12-16T06:11:45.302Z,-86
2016-12-16T06:12:45.276Z,-85
2016-12-16T06:13:45.401Z,-86
2016-12-16T06:14:45.386Z,-85
2016-12-16T06:15:45.291Z,-85
2016-12-16T06:16:45.250Z,-85
2016-12-16T06:17:45.359Z,-86
2016-12-16T06:18:45.317Z,-85
2016-12-16T06:19:45.591Z,-85
2016-12-16T06:20:45.312Z,-86
2016-12-16T06:21:45.385Z,-86
2016-12-16T06:22:45.354Z,-85
2016-12-16T06:23:45.326Z,-86
2016-12-16T06:24:45.455Z,-86
2016-12-16T06:25:45.461Z,-86
2016-12-16T06:26:45.372Z,-86
2016-12-16T06:27:45.394Z,-86
2016-12-16T06:28:45.397Z,-85
2016-12-16T06:29:45.401Z,-85
2016-12-16T06:30:45.376Z,-85
2016-12-16T06:31:45.415Z,-85
2016-12-16T06:32:45.367Z,-86
2016-12-16T06:33:45.418Z,-85
2016-12-16T06:34:45.364Z,-86
2016-12-16T06:35:45.452Z,-85
2016-12-16T06:36:45.443Z,-85
2016-12-16T06:37:45.411Z,-85
2016-12-16T06:38:45.364Z,-85
2016-12-16T06:39:45.445Z,-85
2016-12-16T06:40:45.331Z,-86
2016-12-16T06:41:45.485Z,-85
2016-12-16T06:42:45.459Z,-86
2016-12-16T06:43:45.375Z,-85
2016-12-16T06:44:45.495Z,-86
2016-12-16T06:45:45.428Z,-85
2016-12-16T06:46:45.624Z,-86
2016-12-16T06:47:45.481Z,-86
2016-12-16T06:48:45.373Z,-86
2016-12-16T06:49:45.457Z,-86
2016-12-16T06:50:45.416Z,-86
2016-12-16T06:51:45.674Z,-86
2016-12-16T06:52:45.397Z,-86
2016-12-16T06:53:45.572Z,-86
2016-12-16T06:54:45.517Z,-86
2016-12-16T06:55:45.458Z,-86
2016-12-16T06:56:45.504Z,-86
2016-12-16T06:57:45.474Z,-86
2016-12-16T06:58:45.552Z,-86
2016-12-16T06:59:45.434Z,-86
2016-12-16T07:00:45.701Z,-86
2016-12-16T07:01:45.432Z,-86
2016-12-16T07:02:45.548Z,-86
2016-12-16T07:03:45.467Z,-86
2016-12-16T07:04:45.461Z,-86
2016-12-16T07:05:45.494Z,-86
2016-12-16T07:06:45.386Z,-86
2016-12-16T07:07:45.431Z,-86
2016-12-16T07:08:45.454Z,-91
2016-12-16T07:09:45.508Z,-90
2016-12-16T07:10:45.468Z,-91
2016-12-16T07:11:45.469Z,-90
2016-12-16T07:12:45.527Z,-91
2016-12-16T07:13:45.479Z,-90
2016-12-16T07:14:45.484Z,-90
2016-12-16T07:15:45.435Z,-90
2016-12-16T07:16:45.514Z,-90
2016-12-16T07:17:45.461Z,-90
2016-12-16T07:18:45.651Z,-90
2016-12-16T07:19:45.603Z,-90
2016-12-16T07:20:45.548Z,-90
2016-12-16T07:21:45.514Z,-90
2016-12-16T07:22:45.565Z,-90
2016-12-16T07:23:45.527Z,-90
2016-12-16T07:24:45.450Z,-90
2016-12-16T07:25:45.484Z,-90
2016-12-16T07:26:45.500Z,-90
2016-12-16T07:27:45.679Z,-90
2016-12-16T07:28:45.809Z,-90
2016-12-16T07:29:46.347Z,-90
2016-12-16T07:30:45.511Z,-91
2016-12-16T07:31:47.160Z,-91
2016-12-16T07:32:45.518Z,-91
2016-12-16T07:33:45.519Z,-91
2016-12-16T07:34:45.809Z,-91
2016-12-16T07:35:45.611Z,-91
2016-12-16T07:36:45.570Z,-90
2016-12-16T07:37:45.692Z,-90
2016-12-16T07:38:45.586Z,-90
2016-12-16T07:39:45.687Z,-90
2016-12-16T07:40:45.533Z,-90
2016-12-16T07:41:45.637Z,-90
2016-12-16T07:42:45.567Z,-91
2016-12-16T07:43:45.550Z,-90
2016-12-16T07:44:46.097Z,-90
2016-12-16T07:45:45.555Z,-90
2016-12-16T07:46:45.899Z,-90
2016-12-16T07:47:45.664Z,-90
2016-12-16T07:48:45.526Z,-90
2016-12-16T07:49:45.699Z,-90
2016-12-16T07:50:49.957Z,-89
2016-12-16T07:51:45.807Z,-90
2016-12-16T07:52:45.565Z,-91
2016-12-16T07:53:45.714Z,-89
2016-12-16T07:54:46.024Z,-92
2016-12-16T07:55:45.869Z,-91
2016-12-16T07:56:45.754Z,-91
2016-12-16T07:57:45.733Z,-91
2016-12-16T07:58:47.396Z,-90
2016-12-16T07:59:45.783Z,-90
2016-12-16T08:00:45.603Z,-90
2016-12-16T08:01:45.667Z,-90
2016-12-16T08:02:45.514Z,-90
2016-12-16T08:03:45.709Z,-90
2016-12-16T08:04:45.669Z,-89
2016-12-16T08:05:45.705Z,-90
2016-12-16T08:06:45.662Z,-90
2016-12-16T08:07:45.634Z,-90
2016-12-16T08:08:46.114Z,-92
2016-12-16T08:09:46.976Z,-91
2016-12-16T08:10:46.324Z,-91
2016-12-16T08:11:45.718Z,-90
2016-12-16T08:12:45.722Z,-89
2016-12-16T08:13:45.701Z,-91
2016-12-16T08:14:45.712Z,-90
2016-12-16T08:15:45.615Z,-90
2016-12-16T08:16:45.730Z,-90
2016-12-16T08:17:45.761Z,-90
2016-12-16T08:18:45.663Z,-90
2016-12-16T08:19:45.720Z,-90
2016-12-16T08:20:45.624Z,-91
2016-12-16T08:21:45.762Z,-90
2016-12-16T08:22:45.716Z,-90
2016-12-16T08:23:45.796Z,-90
2016-12-16T08:24:45.782Z,-90
2016-12-16T08:25:45.772Z,-90
2016-12-16T08:26:45.845Z,-89
2016-12-16T08:27:45.760Z,-90
2016-12-16T08:28:45.775Z,-90
2016-12-16T08:29:45.802Z,-90
2016-12-16T08:30:45.727Z,-90
2016-12-16T08:31:45.760Z,-90
2016-12-16T08:32:45.853Z,-90
2016-12-16T08:33:45.771Z,-89
2016-12-16T08:34:46.270Z,-89
2016-12-16T08:35:45.997Z,-89
2016-12-16T08:36:58.140Z,-89
2016-12-16T08:37:51.866Z,-90
2016-12-16T08:38:51.133Z,-90
2016-12-16T08:39:57.565Z,-89
2016-12-16T08:40:51.075Z,-92
2016-12-16T08:41:45.739Z,-90
2016-12-16T08:42:45.944Z,-89
2016-12-16T08:43:45.741Z,-89
2016-12-16T08:44:45.822Z,-89
2016-12-16T08:45:45.791Z,-89
2016-12-16T08:46:45.736Z,-89
2016-12-16T08:47:45.687Z,-90
2016-12-16T08:48:45.775Z,-89
2016-12-16T08:49:46.098Z,-88
2016-12-16T08:50:45.822Z,-89
2016-12-16T08:51:45.850Z,-89
2016-12-16T08:52:45.970Z,-89
2016-12-16T08:53:47.261Z,-89
2016-12-16T08:54:45.728Z,-89
2016-12-16T08:55:45.875Z,-90
2016-12-16T08:56:45.997Z,-90
2016-12-16T08:57:45.774Z,-90
2016-12-16T08:58:45.788Z,-90
2016-12-16T08:59:45.873Z,-90
2016-12-16T09:00:45.763Z,-90
2016-12-16T09:01:45.716Z,-91
2016-12-16T09:02:45.750Z,-91
2016-12-16T09:03:45.835Z,-92
2016-12-16T09:04:46.022Z,-92
2016-12-16T09:05:45.861Z,-92
2016-12-16T09:06:45.873Z,-92
2016-12-16T09:07:45.785Z,-92
2016-12-16T09:08:46.081Z,-92
2016-12-16T09:09:45.828Z,-92
2016-12-16T09:10:45.802Z,-91
2016-12-16T09:11:46.058Z,-91
2016-12-16T09:12:45.935Z,-91
2016-12-16T09:13:45.806Z,-91
2016-12-16T09:14:45.923Z,-92
2016-12-16T09:15:45.902Z,-92
2016-12-16T09:16:46.558Z,-92
2016-12-16T09:17:45.887Z,-92
2016-12-16T09:18:45.940Z,-92
2016-12-16T09:19:45.977Z,-92
2016-12-16T09:20:45.998Z,-92
2016-12-16T09:21:45.890Z,-93
2016-12-16T09:22:45.913Z,-93
2016-12-16T09:23:45.863Z,-92
2016-12-16T09:24:45.926Z,-92
2016-12-16T09:25:45.838Z,-93
2016-12-16T09:26:45.922Z,-92
2016-12-16T09:27:46.014Z,-93
2016-12-16T09:28:46.032Z,-92
2016-12-16T09:29:45.860Z,-91
2016-12-16T09:30:45.985Z,-90
2016-12-16T09:31:45.984Z,-93
2016-12-16T09:32:46.916Z,-91
2016-12-16T09:33:45.863Z,-86
2016-12-16T09:34:45.847Z,-88
2016-12-16T09:35:46.057Z,-88
2016-12-16T09:36:46.007Z,-87
2016-12-16T09:37:46.162Z,-87
2016-12-16T09:38:45.833Z,-87
2016-12-16T09:39:45.991Z,-87
2016-12-16T09:40:45.885Z,-87
2016-12-16T09:41:45.825Z,-87
2016-12-16T09:42:45.908Z,-87
2016-12-16T09:43:46.025Z,-87
2016-12-16T09:44:45.831Z,-87
2016-12-16T09:45:46.091Z,-87
2016-12-16T09:46:45.952Z,-87
2016-12-16T09:47:46.061Z,-88
2016-12-16T09:48:45.921Z,-87
2016-12-16T09:49:46.040Z,-88
2016-12-16T09:50:46.074Z,-87
2016-12-16T09:51:46.229Z,-87
2016-12-16T09:52:46.048Z,-87
2016-12-16T09:53:46.103Z,-87
2016-12-16T09:54:46.231Z,-86
2016-12-16T09:55:46.002Z,-87
2016-12-16T09:56:45.957Z,-87
2016-12-16T09:57:45.918Z,-86
2016-12-16T09:58:46.004Z,-87
2016-12-16T09:59:46.004Z,-86
2016-12-16T10:00:45.963Z,-87
2016-12-16T10:01:46.084Z,-87
2016-12-16T10:02:45.998Z,-86
2016-12-16T10:03:45.991Z,-87
2016-12-16T10:04:45.960Z,-87
2016-12-16T10:05:45.946Z,-87
2016-12-16T10:06:45.952Z,-86
2016-12-16T10:07:45.975Z,-87
2016-12-16T10:08:46.072Z,-86
2016-12-16T10:09:46.118Z,-86
2016-12-16T10:10:45.990Z,-87
2016-12-16T10:11:45.903Z,-87
2016-12-16T10:12:46.011Z,-86
2016-12-16T10:13:46.034Z,-87
2016-12-16T10:14:45.911Z,-87
2016-12-16T10:15:46.111Z,-87
2016-12-16T10:16:46.237Z,-87
2016-12-16T10:17:45.998Z,-86
2016-12-16T10:18:46.146Z,-87
2016-12-16T10:19:46.024Z,-86
2016-12-16T10:20:46.030Z,-87
2016-12-16T10:21:46.163Z,-87
2016-12-16T10:22:46.190Z,-87
2016-12-16T10:23:46.140Z,-87
2016-12-16T10:24:46.177Z,-87
2016-12-16T10:25:46.157Z,-87
2016-12-16T10:26:46.349Z,-86
2016-12-16T10:27:46.068Z,-87
2016-12-16T10:28:46.104Z,-86
2016-12-16T10:29:46.136Z,-86
2016-12-16T10:30:46.112Z,-87
2016-12-16T10:31:46.106Z,-87
2016-12-16T10:32:46.098Z,-88
2016-12-16T10:33:46.069Z,-87
2016-12-16T10:34:46.082Z,-86
2016-12-16T10:35:46.101Z,-86
2016-12-16T10:36:46.035Z,-86
2016-12-16T10:37:46.065Z,-87
2016-12-16T10:38:46.040Z,-86
2016-12-16T10:39:46.136Z,-87
2016-12-16T10:40:46.147Z,-87
2016-12-16T10:41:46.043Z,-88
2016-12-16T10:42:46.015Z,-88
2016-12-16T10:43:46.079Z,-89
2016-12-16T10:44:46.158Z,-89
2016-12-16T10:45:46.183Z,-88
2016-12-16T10:46:46.177Z,-88
2016-12-16T10:47:46.060Z,-88
2016-12-16T10:48:46.123Z,-88
2016-12-16T10:49:46.077Z,-88
2016-12-16T10:50:46.200Z,-88
2016-12-16T10:51:46.173Z,-87
2016-12-16T10:52:46.171Z,-87
2016-12-16T10:53:46.198Z,-88
2016-12-16T10:54:46.159Z,-87
2016-12-16T10:55:46.106Z,-87
2016-12-16T10:56:46.231Z,-87
2016-12-16T10:57:46.371Z,-87
2016-12-16T10:58:46.131Z,-87
2016-12-16T10:59:46.171Z,-87
2016-12-16T11:00:46.220Z,-87
2016-12-16T11:01:46.132Z,-87
2016-12-16T11:02:46.201Z,-87
2016-12-16T11:03:46.178Z,-88
2016-12-16T11:04:46.075Z,-87
2016-12-16T11:05:46.177Z,-88
2016-12-16T11:06:46.156Z,-87
2016-12-16T11:07:46.195Z,-87
2016-12-16T11:08:46.428Z,-87
2016-12-16T11:09:46.104Z,-87
2016-12-16T11:10:46.285Z,-87
2016-12-16T11:11:46.172Z,-87
2016-12-16T11:12:46.362Z,-86
2016-12-16T11:13:46.204Z,-86
2016-12-16T11:14:46.242Z,-86
2016-12-16T11:15:46.266Z,-87
2016-12-16T11:16:46.257Z,-87
2016-12-16T11:17:46.365Z,-87
2016-12-16T11:18:46.260Z,-86
2016-12-16T11:19:46.260Z,-87
2016-12-16T11:20:46.234Z,-87
2016-12-16T11:21:46.279Z,-86
2016-12-16T11:22:46.328Z,-86
2016-12-16T11:23:46.191Z,-86
2016-12-16T11:24:46.184Z,-86
2016-12-16T11:25:46.770Z,-86
2016-12-16T11:26:46.340Z,-84
2016-12-16T11:27:46.504Z,-85
2016-12-16T11:28:46.416Z,-85
2016-12-16T11:29:46.199Z,-86
2016-12-16T11:30:46.158Z,-85
2016-12-16T11:31:46.229Z,-85
2016-12-16T11:32:46.236Z,-86
2016-12-16T11:33:46.390Z,-85
2016-12-16T11:34:46.442Z,-85
2016-12-16T11:35:46.203Z,-86
2016-12-16T11:36:46.205Z,-86
2016-12-16T11:37:46.270Z,-86
2016-12-16T11:38:46.279Z,-85
2016-12-16T11:39:46.546Z,-86
2016-12-16T11:40:46.329Z,-86
2016-12-16T11:41:46.621Z,-86
2016-12-16T11:42:46.205Z,-85
2016-12-16T11:43:46.796Z,-85
2016-12-16T11:44:46.506Z,-85
2016-12-16T11:45:46.307Z,-85
2016-12-16T11:46:46.311Z,-85
2016-12-16T11:47:46.486Z,-85
2016-12-16T11:48:47.010Z,-84
2016-12-16T11:49:46.595Z,-86
2016-12-16T11:50:46.409Z,-85
2016-12-16T11:51:46.514Z,-86
2016-12-16T11:52:46.354Z,-86
2016-12-16T11:53:46.430Z,-86
2016-12-16T11:54:47.205Z,-86
2016-12-16T11:55:46.439Z,-86
2016-12-16T11:56:46.398Z,-86
2016-12-16T11:57:46.379Z,-86
2016-12-16T11:58:46.432Z,-86
2016-12-16T11:59:46.414Z,-85
2016-12-16T12:00:46.340Z,-85
2016-12-16T12:01:46.300Z,-85
2016-12-16T12:02:46.350Z,-85
2016-12-16T12:03:46.353Z,-85
2016-12-16T12:04:46.521Z,-85
2016-12-16T12:05:46.306Z,-85
2016-12-16T12:06:46.379Z,-85
2016-12-16T12:07:46.306Z,-85
2016-12-16T12:08:46.328Z,-85
2016-12-16T12:09:46.346Z,-85
2016-12-16T12:10:46.929Z,-85
2016-12-16T12:11:49.215Z,-85
2016-12-16T12:12:46.400Z,-85
2016-12-16T12:13:46.432Z,-86
2016-12-16T12:14:47.038Z,-85
2016-12-16T12:15:46.355Z,-86
2016-12-16T12:16:46.296Z,-85
2016-12-16T12:17:46.370Z,-85
2016-12-16T12:18:46.319Z,-85
2016-12-16T12:19:46.543Z,-85
2016-12-16T12:20:47.568Z,-85
2016-12-16T12:21:46.444Z,-85
2016-12-16T12:22:46.366Z,-85
2016-12-16T12:23:46.458Z,-85
2016-12-16T12:24:46.511Z,-85
2016-12-16T12:25:48.968Z,-85
2016-12-16T12:26:46.324Z,-85
2016-12-16T12:27:46.791Z,-85
2016-12-16T12:28:46.401Z,-85
2016-12-16T12:29:46.436Z,-85
2016-12-16T12:30:46.354Z,-85
2016-12-16T12:31:46.485Z,-85
2016-12-16T12:32:46.544Z,-85
2016-12-16T12:33:46.491Z,-85
2016-12-16T12:34:46.673Z,-85
2016-12-16T12:35:46.643Z,-84
2016-12-16T12:36:46.503Z,-84
2016-12-16T12:37:47.845Z,-84
2016-12-16T12:38:46.925Z,-84
2016-12-16T12:39:46.613Z,-84
2016-12-16T12:40:46.402Z,-84
2016-12-16T12:41:46.578Z,-84
2016-12-16T12:42:46.581Z,-84
2016-12-16T12:43:46.620Z,-84
2016-12-16T12:44:47.546Z,-83
2016-12-16T12:45:46.962Z,-83
2016-12-16T12:46:47.269Z,-83
2016-12-16T12:47:52.202Z,-82
2016-12-16T12:48:48.594Z,-83
2016-12-16T12:49:48.115Z,-84
2016-12-16T12:50:46.468Z,-83
2016-12-16T12:51:46.482Z,-84
2016-12-16T12:52:46.456Z,-84
2016-12-16T12:53:46.486Z,-84
2016-12-16T12:54:50.763Z,-84
2016-12-16T12:55:48.488Z,-84
2016-12-16T12:56:49.032Z,-84
2016-12-16T12:57:46.489Z,-84
2016-12-16T12:58:46.588Z,-84
2016-12-16T12:59:49.931Z,-84
2016-12-16T13:00:50.919Z,-84
2016-12-16T13:01:47.341Z,-84
2016-12-16T13:02:48.516Z,-84
2016-12-16T13:03:46.471Z,-84
2016-12-16T13:04:46.643Z,-84
2016-12-16T13:05:46.653Z,-84
2016-12-16T13:06:51.979Z,-84
2016-12-16T13:07:47.457Z,-84
2016-12-16T13:08:46.491Z,-84
2016-12-16T13:09:48.340Z,-83
2016-12-16T13:10:49.542Z,-84
2016-12-16T13:11:47.875Z,-84
2016-12-16T13:12:46.650Z,-83
2016-12-16T13:13:48.606Z,-84
2016-12-16T13:14:46.829Z,-83
2016-12-16T13:15:46.561Z,-83
2016-12-16T13:16:46.515Z,-83
2016-12-16T13:17:46.647Z,-83
2016-12-16T13:18:46.744Z,-83
2016-12-16T13:19:46.601Z,-83
2016-12-16T13:20:46.695Z,-84
2016-12-16T13:21:46.604Z,-84
2016-12-16T13:22:46.530Z,-84
2016-12-16T13:23:46.601Z,-84
2016-12-16T13:24:46.625Z,-83
2016-12-16T13:25:46.646Z,-84
2016-12-16T13:26:46.629Z,-84
2016-12-16T13:27:46.589Z,-84
2016-12-16T13:28:46.604Z,-83
2016-12-16T13:29:46.637Z,-83
2016-12-16T13:30:46.477Z,-83
2016-12-16T13:31:46.667Z,-83
2016-12-16T13:32:46.711Z,-83
2016-12-16T13:33:46.579Z,-83
2016-12-16T13:34:46.604Z,-83
2016-12-16T13:35:46.565Z,-84
2016-12-16T13:36:46.609Z,-83
2016-12-16T13:37:46.615Z,-84
2016-12-16T13:38:46.558Z,-83
2016-12-16T13:39:46.620Z,-84
2016-12-16T13:40:46.646Z,-83
2016-12-16T13:41:46.670Z,-83
2016-12-16T13:42:46.654Z,-83
2016-12-16T13:43:46.669Z,-84
2016-12-16T13:44:46.715Z,-83
2016-12-16T13:45:46.803Z,-83
2016-12-16T13:46:46.805Z,-84